sensor_id;sensor_type;location;lat;lon;timestamp;temperature;humidity
41924;DHT22;27613;48.116;11.656;2023-06-14T00:00:39;13.60;74.00
41924;DHT22;27613;48.116;11.656;2023-06-14T00:03:09;13.60;73.50
41924;DHT22;27613;48.116;11.656;2023-06-14T00:05:36;13.60;73.20
41924;DHT22;27613;48.116;11.656;2023-06-14T00:08:07;13.50;74.40
41924;DHT22;27613;48.116;11.656;2023-06-14T00:10:33;13.40;74.60
41924;DHT22;27613;48.116;11.656;2023-06-14T00:13:03;13.30;74.90
41924;DHT22;27613;48.116;11.656;2023-06-14T00:15:30;13.30;74.90
41924;DHT22;27613;48.116;11.656;2023-06-14T00:17:57;13.20;75.40
41924;DHT22;27613;48.116;11.656;2023-06-14T00:20:29;13.20;75.70
41924;DHT22;27613;48.116;11.656;2023-06-14T00:22:56;13.10;76.30
41924;DHT22;27613;48.116;11.656;2023-06-14T00:25:23;13.10;76.60
41924;DHT22;27613;48.116;11.656;2023-06-14T00:27:49;13.10;77.00
41924;DHT22;27613;48.116;11.656;2023-06-14T00:30:14;12.90;76.80
41924;DHT22;27613;48.116;11.656;2023-06-14T00:32:40;12.90;76.90
41924;DHT22;27613;48.116;11.656;2023-06-14T00:35:08;12.90;77.40
41924;DHT22;27613;48.116;11.656;2023-06-14T00:37:34;12.80;77.90
41924;DHT22;27613;48.116;11.656;2023-06-14T00:39:59;12.80;78.70
41924;DHT22;27613;48.116;11.656;2023-06-14T00:42:26;12.80;78.50
41924;DHT22;27613;48.116;11.656;2023-06-14T00:44:51;12.70;79.40
41924;DHT22;27613;48.116;11.656;2023-06-14T00:47:17;12.60;79.70
41924;DHT22;27613;48.116;11.656;2023-06-14T00:49:45;12.60;79.90
41924;DHT22;27613;48.116;11.656;2023-06-14T00:52:11;12.60;79.80
41924;DHT22;27613;48.116;11.656;2023-06-14T00:54:38;12.50;80.00
41924;DHT22;27613;48.116;11.656;2023-06-14T00:57:04;12.40;81.10
41924;DHT22;27613;48.116;11.656;2023-06-14T00:59:30;12.40;81.20
41924;DHT22;27613;48.116;11.656;2023-06-14T01:01:55;12.30;81.70
41924;DHT22;27613;48.116;11.656;2023-06-14T01:04:21;12.30;81.90
41924;DHT22;27613;48.116;11.656;2023-06-14T01:06:50;12.20;82.30
41924;DHT22;27613;48.116;11.656;2023-06-14T01:15:07;12.10;83.80
41924;DHT22;27613;48.116;11.656;2023-06-14T01:17:34;12.10;83.90
41924;DHT22;27613;48.116;11.656;2023-06-14T01:20:03;12.00;84.40
41924;DHT22;27613;48.116;11.656;2023-06-14T01:22:32;12.00;85.30
41924;DHT22;27613;48.116;11.656;2023-06-14T01:24:58;11.90;86.10
41924;DHT22;27613;48.116;11.656;2023-06-14T01:27:26;11.80;86.00
41924;DHT22;27613;48.116;11.656;2023-06-14T01:29:55;11.80;86.70
41924;DHT22;27613;48.116;11.656;2023-06-14T01:32:23;11.80;86.80
41924;DHT22;27613;48.116;11.656;2023-06-14T01:34:50;11.70;87.70
41924;DHT22;27613;48.116;11.656;2023-06-14T01:37:16;11.60;88.20
41924;DHT22;27613;48.116;11.656;2023-06-14T01:39:43;11.60;88.00
41924;DHT22;27613;48.116;11.656;2023-06-14T01:42:10;11.60;88.30
41924;DHT22;27613;48.116;11.656;2023-06-14T01:44:37;11.60;88.20
41924;DHT22;27613;48.116;11.656;2023-06-14T01:47:03;11.50;88.10
41924;DHT22;27613;48.116;11.656;2023-06-14T01:49:28;11.50;88.40
41924;DHT22;27613;48.116;11.656;2023-06-14T01:51:54;11.40;88.90
41924;DHT22;27613;48.116;11.656;2023-06-14T01:54:19;11.30;89.40
41924;DHT22;27613;48.116;11.656;2023-06-14T01:56:47;11.30;90.10
41924;DHT22;27613;48.116;11.656;2023-06-14T01:59:12;11.30;90.30
41924;DHT22;27613;48.116;11.656;2023-06-14T02:01:38;11.20;90.40
41924;DHT22;27613;48.116;11.656;2023-06-14T02:04:03;11.20;90.70
41924;DHT22;27613;48.116;11.656;2023-06-14T02:06:29;11.00;91.20
41924;DHT22;27613;48.116;11.656;2023-06-14T02:08:54;11.10;91.50
41924;DHT22;27613;48.116;11.656;2023-06-14T02:11:20;11.10;91.70
41924;DHT22;27613;48.116;11.656;2023-06-14T02:13:45;11.10;91.90
41924;DHT22;27613;48.116;11.656;2023-06-14T02:16:11;11.00;92.00
41924;DHT22;27613;48.116;11.656;2023-06-14T02:18:36;10.90;92.40
41924;DHT22;27613;48.116;11.656;2023-06-14T02:21:02;10.80;92.60
41924;DHT22;27613;48.116;11.656;2023-06-14T02:23:27;10.80;93.00
41924;DHT22;27613;48.116;11.656;2023-06-14T02:25:53;10.80;93.10
41924;DHT22;27613;48.116;11.656;2023-06-14T02:28:19;10.80;93.60
41924;DHT22;27613;48.116;11.656;2023-06-14T02:30:44;10.70;93.70
41924;DHT22;27613;48.116;11.656;2023-06-14T02:33:10;10.70;93.80
41924;DHT22;27613;48.116;11.656;2023-06-14T02:35:38;10.70;93.90
41924;DHT22;27613;48.116;11.656;2023-06-14T02:38:03;10.70;93.90
41924;DHT22;27613;48.116;11.656;2023-06-14T02:40:29;10.70;94.20
41924;DHT22;27613;48.116;11.656;2023-06-14T02:42:54;10.60;94.50
41924;DHT22;27613;48.116;11.656;2023-06-14T02:45:20;10.60;94.80
41924;DHT22;27613;48.116;11.656;2023-06-14T02:47:46;10.50;94.70
41924;DHT22;27613;48.116;11.656;2023-06-14T02:50:12;10.50;95.00
41924;DHT22;27613;48.116;11.656;2023-06-14T02:52:37;10.50;95.20
41924;DHT22;27613;48.116;11.656;2023-06-14T02:55:03;10.50;95.00
41924;DHT22;27613;48.116;11.656;2023-06-14T02:57:29;10.50;95.20
41924;DHT22;27613;48.116;11.656;2023-06-14T02:59:54;10.40;95.00
41924;DHT22;27613;48.116;11.656;2023-06-14T03:02:20;10.40;94.90
41924;DHT22;27613;48.116;11.656;2023-06-14T03:04:46;10.30;94.90
41924;DHT22;27613;48.116;11.656;2023-06-14T03:07:12;10.30;95.20
41924;DHT22;27613;48.116;11.656;2023-06-14T03:09:39;10.20;95.50
41924;DHT22;27613;48.116;11.656;2023-06-14T03:12:05;10.20;95.70
41924;DHT22;27613;48.116;11.656;2023-06-14T03:14:34;10.20;95.30
41924;DHT22;27613;48.116;11.656;2023-06-14T03:17:00;10.20;95.70
41924;DHT22;27613;48.116;11.656;2023-06-14T03:19:26;10.10;95.90
41924;DHT22;27613;48.116;11.656;2023-06-14T03:21:52;10.10;95.80
41924;DHT22;27613;48.116;11.656;2023-06-14T03:24:18;10.10;96.00
41924;DHT22;27613;48.116;11.656;2023-06-14T03:26:45;10.10;96.00
41924;DHT22;27613;48.116;11.656;2023-06-14T03:29:10;10.10;96.30
41924;DHT22;27613;48.116;11.656;2023-06-14T03:31:36;10.10;96.10
41924;DHT22;27613;48.116;11.656;2023-06-14T03:34:02;10.10;95.90
41924;DHT22;27613;48.116;11.656;2023-06-14T03:36:27;10.00;96.40
41924;DHT22;27613;48.116;11.656;2023-06-14T03:38:56;10.10;96.30
41924;DHT22;27613;48.116;11.656;2023-06-14T03:41:21;10.00;96.70
41924;DHT22;27613;48.116;11.656;2023-06-14T03:43:47;10.10;96.90
41924;DHT22;27613;48.116;11.656;2023-06-14T03:46:12;10.10;97.30
41924;DHT22;27613;48.116;11.656;2023-06-14T03:48:38;10.00;97.30
41924;DHT22;27613;48.116;11.656;2023-06-14T03:51:04;10.00;97.40
41924;DHT22;27613;48.116;11.656;2023-06-14T03:53:30;10.00;97.40
41924;DHT22;27613;48.116;11.656;2023-06-14T03:55:56;10.10;97.70
41924;DHT22;27613;48.116;11.656;2023-06-14T03:58:22;10.20;97.90
41924;DHT22;27613;48.116;11.656;2023-06-14T04:00:48;10.20;97.50
41924;DHT22;27613;48.116;11.656;2023-06-14T04:03:14;10.20;98.30
41924;DHT22;27613;48.116;11.656;2023-06-14T04:05:41;10.20;98.40
41924;DHT22;27613;48.116;11.656;2023-06-14T04:08:09;10.20;98.20
41924;DHT22;27613;48.116;11.656;2023-06-14T04:10:35;10.20;97.80
41924;DHT22;27613;48.116;11.656;2023-06-14T04:13:01;10.20;97.80
41924;DHT22;27613;48.116;11.656;2023-06-14T04:15:26;10.30;97.80
41924;DHT22;27613;48.116;11.656;2023-06-14T04:17:53;10.30;97.40
41924;DHT22;27613;48.116;11.656;2023-06-14T04:20:23;10.30;97.00
41924;DHT22;27613;48.116;11.656;2023-06-14T04:22:50;10.30;96.90
41924;DHT22;27613;48.116;11.656;2023-06-14T04:25:16;10.30;96.70
41924;DHT22;27613;48.116;11.656;2023-06-14T04:27:42;10.40;96.40
41924;DHT22;27613;48.116;11.656;2023-06-14T04:30:08;10.50;95.90
41924;DHT22;27613;48.116;11.656;2023-06-14T04:32:33;10.50;94.90
41924;DHT22;27613;48.116;11.656;2023-06-14T04:35:00;10.50;94.60
41924;DHT22;27613;48.116;11.656;2023-06-14T04:37:29;10.50;93.70
41924;DHT22;27613;48.116;11.656;2023-06-14T04:39:55;10.60;93.50
41924;DHT22;27613;48.116;11.656;2023-06-14T04:42:21;10.50;93.00
41924;DHT22;27613;48.116;11.656;2023-06-14T04:44:50;10.50;93.10
41924;DHT22;27613;48.116;11.656;2023-06-14T04:47:16;10.60;93.20
41924;DHT22;27613;48.116;11.656;2023-06-14T04:49:42;10.70;92.60
41924;DHT22;27613;48.116;11.656;2023-06-14T04:52:07;10.70;92.60
41924;DHT22;27613;48.116;11.656;2023-06-14T04:54:36;10.80;92.80
41924;DHT22;27613;48.116;11.656;2023-06-14T04:57:05;10.90;92.70
41924;DHT22;27613;48.116;11.656;2023-06-14T04:59:31;11.00;92.30
41924;DHT22;27613;48.116;11.656;2023-06-14T05:01:59;11.00;91.90
41924;DHT22;27613;48.116;11.656;2023-06-14T05:04:25;11.10;91.90
41924;DHT22;27613;48.116;11.656;2023-06-14T05:06:53;11.20;91.60
41924;DHT22;27613;48.116;11.656;2023-06-14T05:09:20;11.30;91.70
41924;DHT22;27613;48.116;11.656;2023-06-14T05:11:46;11.40;91.60
41924;DHT22;27613;48.116;11.656;2023-06-14T05:14:14;11.50;91.20
41924;DHT22;27613;48.116;11.656;2023-06-14T05:16:40;11.50;91.20
41924;DHT22;27613;48.116;11.656;2023-06-14T05:19:06;11.60;90.80
41924;DHT22;27613;48.116;11.656;2023-06-14T05:21:32;11.70;90.60
41924;DHT22;27613;48.116;11.656;2023-06-14T05:23:59;11.80;90.80
41924;DHT22;27613;48.116;11.656;2023-06-14T05:26:24;11.80;90.90
41924;DHT22;27613;48.116;11.656;2023-06-14T05:28:54;12.00;90.90
41924;DHT22;27613;48.116;11.656;2023-06-14T05:31:24;12.00;90.60
41924;DHT22;27613;48.116;11.656;2023-06-14T05:33:50;12.10;90.30
41924;DHT22;27613;48.116;11.656;2023-06-14T05:36:16;12.10;90.70
41924;DHT22;27613;48.116;11.656;2023-06-14T05:38:41;12.20;90.70
41924;DHT22;27613;48.116;11.656;2023-06-14T05:41:06;12.30;90.80
41924;DHT22;27613;48.116;11.656;2023-06-14T05:43:32;12.30;90.90
41924;DHT22;27613;48.116;11.656;2023-06-14T05:45:57;12.40;91.00
41924;DHT22;27613;48.116;11.656;2023-06-14T05:48:23;12.50;90.00
41924;DHT22;27613;48.116;11.656;2023-06-14T05:50:48;12.60;89.60
41924;DHT22;27613;48.116;11.656;2023-06-14T05:53:14;12.60;90.10
41924;DHT22;27613;48.116;11.656;2023-06-14T05:55:39;12.80;89.60
41924;DHT22;27613;48.116;11.656;2023-06-14T05:58:05;12.80;90.00
41924;DHT22;27613;48.116;11.656;2023-06-14T06:00:31;12.80;89.00
41924;DHT22;27613;48.116;11.656;2023-06-14T06:02:56;13.00;89.20
41924;DHT22;27613;48.116;11.656;2023-06-14T06:05:26;13.00;88.60
41924;DHT22;27613;48.116;11.656;2023-06-14T06:07:51;13.20;89.30
41924;DHT22;27613;48.116;11.656;2023-06-14T06:10:17;13.30;88.90
41924;DHT22;27613;48.116;11.656;2023-06-14T06:12:42;13.40;88.90
41924;DHT22;27613;48.116;11.656;2023-06-14T06:15:08;13.40;87.70
41924;DHT22;27613;48.116;11.656;2023-06-14T06:17:37;13.40;88.90
41924;DHT22;27613;48.116;11.656;2023-06-14T06:20:03;13.60;88.70
41924;DHT22;27613;48.116;11.656;2023-06-14T06:22:31;13.60;87.80
41924;DHT22;27613;48.116;11.656;2023-06-14T06:24:56;13.90;85.70
41924;DHT22;27613;48.116;11.656;2023-06-14T06:27:21;13.90;86.80
41924;DHT22;27613;48.116;11.656;2023-06-14T06:29:47;13.90;86.90
41924;DHT22;27613;48.116;11.656;2023-06-14T06:32:14;14.20;85.20
41924;DHT22;27613;48.116;11.656;2023-06-14T06:34:40;14.20;86.60
41924;DHT22;27613;48.116;11.656;2023-06-14T06:37:05;14.30;87.40
41924;DHT22;27613;48.116;11.656;2023-06-14T06:39:31;14.30;86.80
41924;DHT22;27613;48.116;11.656;2023-06-14T06:41:57;14.40;87.40
41924;DHT22;27613;48.116;11.656;2023-06-14T06:44:22;14.60;85.50
41924;DHT22;27613;48.116;11.656;2023-06-14T06:46:48;14.80;85.10
41924;DHT22;27613;48.116;11.656;2023-06-14T06:49:13;14.70;83.20
41924;DHT22;27613;48.116;11.656;2023-06-14T06:51:41;14.80;84.30
41924;DHT22;27613;48.116;11.656;2023-06-14T06:54:08;15.00;83.80
41924;DHT22;27613;48.116;11.656;2023-06-14T06:56:34;15.10;82.70
41924;DHT22;27613;48.116;11.656;2023-06-14T06:59:00;15.20;80.50
41924;DHT22;27613;48.116;11.656;2023-06-14T07:01:25;15.40;81.20
41924;DHT22;27613;48.116;11.656;2023-06-14T07:03:51;15.60;79.70
41924;DHT22;27613;48.116;11.656;2023-06-14T07:06:17;15.60;79.80
41924;DHT22;27613;48.116;11.656;2023-06-14T07:08:44;15.60;80.00
41924;DHT22;27613;48.116;11.656;2023-06-14T07:11:10;15.70;79.00
41924;DHT22;27613;48.116;11.656;2023-06-14T07:13:35;15.90;79.40
41924;DHT22;27613;48.116;11.656;2023-06-14T07:16:01;16.10;78.50
41924;DHT22;27613;48.116;11.656;2023-06-14T07:18:27;16.20;75.20
41924;DHT22;27613;48.116;11.656;2023-06-14T07:20:53;16.30;75.80
41924;DHT22;27613;48.116;11.656;2023-06-14T07:23:22;16.30;75.30
41924;DHT22;27613;48.116;11.656;2023-06-14T07:25:48;16.50;76.30
41924;DHT22;27613;48.116;11.656;2023-06-14T07:28:14;16.80;74.60
41924;DHT22;27613;48.116;11.656;2023-06-14T07:30:39;16.80;74.40
41924;DHT22;27613;48.116;11.656;2023-06-14T07:33:05;16.80;74.00
41924;DHT22;27613;48.116;11.656;2023-06-14T07:35:31;16.90;73.70
41924;DHT22;27613;48.116;11.656;2023-06-14T07:37:56;17.00;73.50
41924;DHT22;27613;48.116;11.656;2023-06-14T07:40:22;17.20;70.40
41924;DHT22;27613;48.116;11.656;2023-06-14T07:42:47;17.20;70.00
41924;DHT22;27613;48.116;11.656;2023-06-14T07:45:15;17.30;71.70
41924;DHT22;27613;48.116;11.656;2023-06-14T07:47:40;17.40;70.50
41924;DHT22;27613;48.116;11.656;2023-06-14T07:50:06;17.60;68.60
41924;DHT22;27613;48.116;11.656;2023-06-14T07:52:32;17.80;68.80
41924;DHT22;27613;48.116;11.656;2023-06-14T07:54:57;17.80;66.70
41924;DHT22;27613;48.116;11.656;2023-06-14T07:57:23;17.80;67.60
41924;DHT22;27613;48.116;11.656;2023-06-14T07:59:49;17.90;68.20
41924;DHT22;27613;48.116;11.656;2023-06-14T08:02:15;18.20;65.50
41924;DHT22;27613;48.116;11.656;2023-06-14T08:04:41;18.10;65.20
41924;DHT22;27613;48.116;11.656;2023-06-14T08:07:07;18.20;66.60
41924;DHT22;27613;48.116;11.656;2023-06-14T08:09:33;18.30;61.90
41924;DHT22;27613;48.116;11.656;2023-06-14T08:11:58;18.40;63.10
41924;DHT22;27613;48.116;11.656;2023-06-14T08:14:24;18.60;62.90
41924;DHT22;27613;48.116;11.656;2023-06-14T08:16:49;18.70;63.60
41924;DHT22;27613;48.116;11.656;2023-06-14T08:19:15;18.80;61.90
41924;DHT22;27613;48.116;11.656;2023-06-14T08:21:42;19.00;60.20
41924;DHT22;27613;48.116;11.656;2023-06-14T08:24:10;19.00;60.30
41924;DHT22;27613;48.116;11.656;2023-06-14T08:26:38;19.10;59.10
41924;DHT22;27613;48.116;11.656;2023-06-14T08:29:03;19.40;56.60
41924;DHT22;27613;48.116;11.656;2023-06-14T08:31:29;19.40;56.30
41924;DHT22;27613;48.116;11.656;2023-06-14T08:33:57;19.60;55.30
41924;DHT22;27613;48.116;11.656;2023-06-14T08:36:22;19.70;53.50
41924;DHT22;27613;48.116;11.656;2023-06-14T08:38:48;19.80;55.20
41924;DHT22;27613;48.116;11.656;2023-06-14T08:41:20;20.00;54.40
41924;DHT22;27613;48.116;11.656;2023-06-14T08:43:47;20.10;52.50
41924;DHT22;27613;48.116;11.656;2023-06-14T08:46:13;20.20;55.10
41924;DHT22;27613;48.116;11.656;2023-06-14T08:48:42;20.50;55.30
41924;DHT22;27613;48.116;11.656;2023-06-14T08:51:09;20.70;54.00
41924;DHT22;27613;48.116;11.656;2023-06-14T08:53:36;21.00;54.00
41924;DHT22;27613;48.116;11.656;2023-06-14T08:56:08;20.80;54.10
41924;DHT22;27613;48.116;11.656;2023-06-14T08:58:41;21.20;51.90
41924;DHT22;27613;48.116;11.656;2023-06-14T09:01:13;21.30;51.30
41924;DHT22;27613;48.116;11.656;2023-06-14T09:03:40;21.50;51.60
41924;DHT22;27613;48.116;11.656;2023-06-14T09:06:08;21.70;51.20
41924;DHT22;27613;48.116;11.656;2023-06-14T09:08:45;21.80;51.10
41924;DHT22;27613;48.116;11.656;2023-06-14T09:11:12;21.40;49.60
41924;DHT22;27613;48.116;11.656;2023-06-14T09:13:38;21.60;51.50
41924;DHT22;27613;48.116;11.656;2023-06-14T09:16:05;22.10;52.70
41924;DHT22;27613;48.116;11.656;2023-06-14T09:18:40;22.20;50.70
41924;DHT22;27613;48.116;11.656;2023-06-14T09:21:09;22.20;50.80
41924;DHT22;27613;48.116;11.656;2023-06-14T09:23:43;22.80;50.60
41924;DHT22;27613;48.116;11.656;2023-06-14T09:26:10;23.20;51.60
41924;DHT22;27613;48.116;11.656;2023-06-14T09:28:40;23.00;49.00
41924;DHT22;27613;48.116;11.656;2023-06-14T09:31:07;23.20;50.30
41924;DHT22;27613;48.116;11.656;2023-06-14T09:33:34;22.50;50.60
41924;DHT22;27613;48.116;11.656;2023-06-14T09:35:59;22.10;51.20
41924;DHT22;27613;48.116;11.656;2023-06-14T09:38:25;21.60;51.60
41924;DHT22;27613;48.116;11.656;2023-06-14T09:40:52;21.70;51.90
41924;DHT22;27613;48.116;11.656;2023-06-14T09:43:17;21.70;51.50
41924;DHT22;27613;48.116;11.656;2023-06-14T09:45:44;21.50;50.80
41924;DHT22;27613;48.116;11.656;2023-06-14T09:48:11;22.50;51.90
41924;DHT22;27613;48.116;11.656;2023-06-14T09:50:37;24.40;48.70
41924;DHT22;27613;48.116;11.656;2023-06-14T09:53:09;24.20;47.30
41924;DHT22;27613;48.116;11.656;2023-06-14T09:55:36;23.90;48.00
41924;DHT22;27613;48.116;11.656;2023-06-14T09:58:05;24.80;47.10
41924;DHT22;27613;48.116;11.656;2023-06-14T10:00:32;25.40;44.30
41924;DHT22;27613;48.116;11.656;2023-06-14T10:03:06;24.30;46.00
41924;DHT22;27613;48.116;11.656;2023-06-14T10:05:34;25.60;45.20
41924;DHT22;27613;48.116;11.656;2023-06-14T10:08:08;26.20;44.90
41924;DHT22;27613;48.116;11.656;2023-06-14T10:10:37;25.60;44.10
41924;DHT22;27613;48.116;11.656;2023-06-14T10:13:03;24.50;44.50
41924;DHT22;27613;48.116;11.656;2023-06-14T10:21:07;26.60;44.70
41924;DHT22;27613;48.116;11.656;2023-06-14T10:23:38;28.50;43.20
41924;DHT22;27613;48.116;11.656;2023-06-14T10:26:05;30.30;40.60
41924;DHT22;27613;48.116;11.656;2023-06-14T10:28:31;31.00;39.00
41924;DHT22;27613;48.116;11.656;2023-06-14T10:31:11;31.90;38.50
41924;DHT22;27613;48.116;11.656;2023-06-14T10:33:49;31.90;37.30
41924;DHT22;27613;48.116;11.656;2023-06-14T10:36:26;32.20;37.50
41924;DHT22;27613;48.116;11.656;2023-06-14T10:39:07;32.50;36.70
41924;DHT22;27613;48.116;11.656;2023-06-14T10:41:38;33.40;36.30
41924;DHT22;27613;48.116;11.656;2023-06-14T10:46:39;30.40;37.40
41924;DHT22;27613;48.116;11.656;2023-06-14T10:49:04;30.50;38.30
41924;DHT22;27613;48.116;11.656;2023-06-14T10:51:39;30.50;38.90
41924;DHT22;27613;48.116;11.656;2023-06-14T10:54:15;32.30;37.40
41924;DHT22;27613;48.116;11.656;2023-06-14T10:56:52;33.00;36.60
41924;DHT22;27613;48.116;11.656;2023-06-14T10:59:19;33.50;36.50
41924;DHT22;27613;48.116;11.656;2023-06-14T11:04:52;32.50;37.00
41924;DHT22;27613;48.116;11.656;2023-06-14T11:07:47;32.90;37.10
41924;DHT22;27613;48.116;11.656;2023-06-14T11:12:48;33.70;37.20
41924;DHT22;27613;48.116;11.656;2023-06-14T11:15:14;32.00;36.90
41924;DHT22;27613;48.116;11.656;2023-06-14T11:17:45;31.70;38.00
41924;DHT22;27613;48.116;11.656;2023-06-14T11:20:15;32.60;38.00
41924;DHT22;27613;48.116;11.656;2023-06-14T11:22:44;33.40;36.90
41924;DHT22;27613;48.116;11.656;2023-06-14T11:25:13;34.30;35.80
41924;DHT22;27613;48.116;11.656;2023-06-14T11:27:38;33.90;35.70
41924;DHT22;27613;48.116;11.656;2023-06-14T11:30:07;34.40;36.20
41924;DHT22;27613;48.116;11.656;2023-06-14T11:32:33;35.20;35.10
41924;DHT22;27613;48.116;11.656;2023-06-14T11:34:59;34.60;34.70
41924;DHT22;27613;48.116;11.656;2023-06-14T11:37:26;35.90;34.70
41924;DHT22;27613;48.116;11.656;2023-06-14T11:39:56;35.90;33.70
41924;DHT22;27613;48.116;11.656;2023-06-14T11:42:22;35.20;34.40
41924;DHT22;27613;48.116;11.656;2023-06-14T11:44:49;35.10;33.10
41924;DHT22;27613;48.116;11.656;2023-06-14T11:47:15;34.50;34.60
41924;DHT22;27613;48.116;11.656;2023-06-14T11:49:40;34.80;34.50
41924;DHT22;27613;48.116;11.656;2023-06-14T11:52:07;33.20;34.60
41924;DHT22;27613;48.116;11.656;2023-06-14T11:54:33;31.70;35.60
41924;DHT22;27613;48.116;11.656;2023-06-14T11:56:59;30.20;37.40
41924;DHT22;27613;48.116;11.656;2023-06-14T11:59:25;30.20;37.50
41924;DHT22;27613;48.116;11.656;2023-06-14T12:01:52;30.70;38.00
41924;DHT22;27613;48.116;11.656;2023-06-14T12:04:29;31.60;36.90
41924;DHT22;27613;48.116;11.656;2023-06-14T12:06:55;32.30;36.60
41924;DHT22;27613;48.116;11.656;2023-06-14T12:09:21;33.30;35.00
41924;DHT22;27613;48.116;11.656;2023-06-14T12:11:49;34.10;34.70
41924;DHT22;27613;48.116;11.656;2023-06-14T12:14:15;34.70;35.10
41924;DHT22;27613;48.116;11.656;2023-06-14T12:16:41;34.00;35.00
41924;DHT22;27613;48.116;11.656;2023-06-14T12:19:13;33.30;33.50
41924;DHT22;27613;48.116;11.656;2023-06-14T12:21:39;33.40;34.90
41924;DHT22;27613;48.116;11.656;2023-06-14T12:24:06;33.30;34.20
41924;DHT22;27613;48.116;11.656;2023-06-14T12:26:32;31.90;35.00
41924;DHT22;27613;48.116;11.656;2023-06-14T12:28:58;30.40;36.60
41924;DHT22;27613;48.116;11.656;2023-06-14T12:31:24;30.50;36.70
41924;DHT22;27613;48.116;11.656;2023-06-14T12:33:50;28.90;37.50
41924;DHT22;27613;48.116;11.656;2023-06-14T12:36:15;30.00;37.30
41924;DHT22;27613;48.116;11.656;2023-06-14T12:38:42;30.80;37.40
41924;DHT22;27613;48.116;11.656;2023-06-14T12:41:07;31.70;36.00
41924;DHT22;27613;48.116;11.656;2023-06-14T12:43:33;33.20;35.30
41924;DHT22;27613;48.116;11.656;2023-06-14T12:45:59;34.50;34.70
41924;DHT22;27613;48.116;11.656;2023-06-14T12:48:25;32.20;35.50
41924;DHT22;27613;48.116;11.656;2023-06-14T12:50:53;32.70;36.00
41924;DHT22;27613;48.116;11.656;2023-06-14T12:53:18;33.30;35.40
41924;DHT22;27613;48.116;11.656;2023-06-14T12:55:44;34.10;34.30
41924;DHT22;27613;48.116;11.656;2023-06-14T12:58:10;35.00;33.90
41924;DHT22;27613;48.116;11.656;2023-06-14T13:00:38;35.80;33.60
41924;DHT22;27613;48.116;11.656;2023-06-14T13:03:03;35.80;32.70
41924;DHT22;27613;48.116;11.656;2023-06-14T13:05:29;35.60;33.10
41924;DHT22;27613;48.116;11.656;2023-06-14T13:07:56;35.60;33.00
41924;DHT22;27613;48.116;11.656;2023-06-14T13:10:22;35.60;32.00
41924;DHT22;27613;48.116;11.656;2023-06-14T13:12:47;35.40;32.60
41924;DHT22;27613;48.116;11.656;2023-06-14T13:15:13;35.00;33.50
41924;DHT22;27613;48.116;11.656;2023-06-14T13:17:39;34.40;33.90
41924;DHT22;27613;48.116;11.656;2023-06-14T13:20:06;35.40;33.80
41924;DHT22;27613;48.116;11.656;2023-06-14T13:22:32;36.40;32.90
41924;DHT22;27613;48.116;11.656;2023-06-14T13:24:58;35.40;32.80
41924;DHT22;27613;48.116;11.656;2023-06-14T13:27:23;34.90;33.10
41924;DHT22;27613;48.116;11.656;2023-06-14T13:29:50;35.80;33.70
41924;DHT22;27613;48.116;11.656;2023-06-14T13:32:15;34.90;33.80
41924;DHT22;27613;48.116;11.656;2023-06-14T13:34:41;35.20;33.90
41924;DHT22;27613;48.116;11.656;2023-06-14T13:37:07;35.60;33.10
41924;DHT22;27613;48.116;11.656;2023-06-14T13:39:32;34.60;31.90
41924;DHT22;27613;48.116;11.656;2023-06-14T13:41:58;34.50;33.80
41924;DHT22;27613;48.116;11.656;2023-06-14T13:44:23;33.70;33.30
41924;DHT22;27613;48.116;11.656;2023-06-14T13:46:50;33.80;33.40
41924;DHT22;27613;48.116;11.656;2023-06-14T13:49:16;34.70;33.30
41924;DHT22;27613;48.116;11.656;2023-06-14T13:51:42;35.40;32.80
41924;DHT22;27613;48.116;11.656;2023-06-14T13:54:07;36.20;32.40
41924;DHT22;27613;48.116;11.656;2023-06-14T13:56:33;37.00;31.30
41924;DHT22;27613;48.116;11.656;2023-06-14T13:58:58;34.20;31.90
41924;DHT22;27613;48.116;11.656;2023-06-14T14:01:25;33.10;33.40
41924;DHT22;27613;48.116;11.656;2023-06-14T14:03:52;32.70;34.00
41924;DHT22;27613;48.116;11.656;2023-06-14T14:06:17;33.20;34.20
41924;DHT22;27613;48.116;11.656;2023-06-14T14:08:43;33.80;32.30
41924;DHT22;27613;48.116;11.656;2023-06-14T14:11:09;34.70;32.40
41924;DHT22;27613;48.116;11.656;2023-06-14T14:13:35;36.00;32.10
41924;DHT22;27613;48.116;11.656;2023-06-14T14:16:02;36.60;31.90
41924;DHT22;27613;48.116;11.656;2023-06-14T14:18:28;36.50;32.20
41924;DHT22;27613;48.116;11.656;2023-06-14T14:20:54;36.40;32.40
41924;DHT22;27613;48.116;11.656;2023-06-14T14:23:21;36.20;32.50
41924;DHT22;27613;48.116;11.656;2023-06-14T14:25:47;35.00;33.50
41924;DHT22;27613;48.116;11.656;2023-06-14T14:28:13;34.30;33.50
41924;DHT22;27613;48.116;11.656;2023-06-14T14:30:41;35.40;33.10
41924;DHT22;27613;48.116;11.656;2023-06-14T14:33:07;36.10;32.60
41924;DHT22;27613;48.116;11.656;2023-06-14T14:35:33;35.90;32.50
41924;DHT22;27613;48.116;11.656;2023-06-14T14:37:58;35.90;32.10
41924;DHT22;27613;48.116;11.656;2023-06-14T14:40:24;35.50;32.30
41924;DHT22;27613;48.116;11.656;2023-06-14T14:42:50;35.40;33.10
41924;DHT22;27613;48.116;11.656;2023-06-14T14:45:15;34.80;33.10
41924;DHT22;27613;48.116;11.656;2023-06-14T14:47:41;35.00;33.50
41924;DHT22;27613;48.116;11.656;2023-06-14T14:50:07;34.30;33.80
41924;DHT22;27613;48.116;11.656;2023-06-14T14:52:34;35.00;33.60
41924;DHT22;27613;48.116;11.656;2023-06-14T14:55:00;35.60;33.40
41924;DHT22;27613;48.116;11.656;2023-06-14T14:57:26;33.90;34.00
41924;DHT22;27613;48.116;11.656;2023-06-14T14:59:52;35.10;32.60
41924;DHT22;27613;48.116;11.656;2023-06-14T15:02:18;35.40;33.00
41924;DHT22;27613;48.116;11.656;2023-06-14T15:04:45;36.40;32.50
41924;DHT22;27613;48.116;11.656;2023-06-14T15:07:10;35.10;32.80
41924;DHT22;27613;48.116;11.656;2023-06-14T15:09:36;34.50;33.30
41924;DHT22;27613;48.116;11.656;2023-06-14T15:12:02;34.10;33.60
41924;DHT22;27613;48.116;11.656;2023-06-14T15:14:28;35.80;32.80
41924;DHT22;27613;48.116;11.656;2023-06-14T15:16:53;35.80;33.10
41924;DHT22;27613;48.116;11.656;2023-06-14T15:19:19;36.50;32.50
41924;DHT22;27613;48.116;11.656;2023-06-14T15:21:45;36.60;31.90
41924;DHT22;27613;48.116;11.656;2023-06-14T15:24:10;35.70;31.20
41924;DHT22;27613;48.116;11.656;2023-06-14T15:26:36;35.60;31.90
41924;DHT22;27613;48.116;11.656;2023-06-14T15:29:01;35.60;32.10
41924;DHT22;27613;48.116;11.656;2023-06-14T15:31:27;34.20;32.70